Time,TemperatureF,DewpointF,PressureIn,WindDirection,WindDirectionDegrees,WindSpeedMPH,WindSpeedGustMPH,Humidity,HourlyPrecipIn,Conditions,Clouds,dailyrainin,SoftwareType,DateUTC
2013-07-10 00:02:00,69.0,63.0,-100.00,SW,235,1.0,4.0,80,0.00,,,-99.99,,2013-07-10 05:02:00,
2013-07-10 00:12:00,69.0,63.0,-100.00,SW,235,1.0,4.0,80,0.00,,,-99.99,,2013-07-10 05:12:00,
2013-07-10 00:42:00,69.0,63.0,-100.00,SW,230,1.0,7.0,80,0.00,,,-99.99,,2013-07-10 05:42:00,
2013-07-10 00:53:00,69.0,63.0,-100.00,SW,230,1.0,7.0,80,0.00,,,-99.99,,2013-07-10 05:53:00,
2013-07-10 01:01:00,69.0,63.0,-100.00,SW,230,1.0,7.0,80,0.00,,,-99.99,,2013-07-10 06:01:00,
2013-07-10 01:11:00,69.0,63.0,-100.00,SW,230,1.0,7.0,80,0.00,,,-99.99,,2013-07-10 06:11:00,
2013-07-10 01:42:00,69.0,62.0,-100.00,West,275,1.0,6.0,81,0.00,,,-99.99,,2013-07-10 06:42:00,
2013-07-10 01:52:00,69.0,62.0,-100.00,West,275,1.0,6.0,81,0.00,,,-99.99,,2013-07-10 06:52:00,
2013-07-10 02:01:00,69.0,62.0,-100.00,West,275,1.0,6.0,81,0.00,,,-99.99,,2013-07-10 07:01:00,
2013-07-10 02:11:00,69.0,62.0,-100.00,West,275,1.0,6.0,81,0.00,,,-99.99,,2013-07-10 07:11:00,
2013-07-10 02:33:00,70.0,63.0,-100.00,NW,305,2.0,18.0,80,0.00,,,-99.99,,2013-07-10 07:33:00,
2013-07-10 02:43:00,70.0,63.0,-100.00,NW,305,2.0,18.0,80,0.00,,,-99.99,,2013-07-10 07:43:00,
2013-07-10 02:53:00,70.0,63.0,-100.00,NW,305,2.0,18.0,80,0.00,,,-99.99,,2013-07-10 07:53:00,
2013-07-10 03:01:00,70.0,63.0,-100.00,NW,305,2.0,18.0,80,0.00,,,-99.99,,2013-07-10 08:01:00,
2013-07-10 03:11:00,70.0,63.0,-100.00,NW,305,2.0,18.0,80,0.00,,,-99.99,,2013-07-10 08:11:00,
2013-07-10 03:33:00,70.0,60.0,-100.00,North,0,4.0,14.0,72,0.00,,,-99.99,,2013-07-10 08:33:00,
2013-07-10 03:42:00,70.0,60.0,-100.00,North,0,4.0,14.0,72,0.00,,,-99.99,,2013-07-10 08:42:00,
2013-07-10 03:53:00,70.0,60.0,-100.00,North,0,4.0,14.0,72,0.00,,,-99.99,,2013-07-10 08:53:00,
2013-07-10 04:02:00,70.0,60.0,-100.00,North,0,4.0,14.0,72,0.00,,,-99.99,,2013-07-10 09:02:00,
2013-07-10 04:12:00,70.0,60.0,-100.00,North,0,4.0,14.0,72,0.00,,,-99.99,,2013-07-10 09:12:00,
2013-07-10 05:51:00,-999.0,-99.9,-100.00,NNW,330,6.0,14.0,-999,-99.99,,,-99.99,,2013-07-10 10:51:00,
2013-07-10 06:00:00,-999.0,-99.9,-100.00,NNW,330,6.0,14.0,-999,-99.99,,,-99.99,,2013-07-10 11:00:00,
2013-07-10 07:11:00,63.0,50.0,-100.00,NW,305,1.0,7.0,62,0.00,,,-99.99,,2013-07-10 12:11:00,
2013-07-10 07:43:00,67.0,49.0,-100.00,NW,320,3.0,21.0,53,0.00,,,-99.99,,2013-07-10 12:43:00,
2013-07-10 07:53:00,67.0,49.0,-100.00,NW,320,3.0,21.0,53,0.00,,,-99.99,,2013-07-10 12:53:00,
2013-07-10 08:01:00,67.0,49.0,-100.00,NW,320,3.0,21.0,53,0.00,,,-99.99,,2013-07-10 13:01:00,
2013-07-10 08:11:00,67.0,49.0,-100.00,NW,320,3.0,21.0,53,0.00,,,-99.99,,2013-07-10 13:11:00,
2013-07-10 08:32:00,67.0,47.0,-100.00,North,350,4.0,18.0,48,0.00,,,-99.99,,2013-07-10 13:32:00,
2013-07-10 08:43:00,67.0,47.0,-100.00,North,350,4.0,18.0,48,0.00,,,-99.99,,2013-07-10 13:43:00,
2013-07-10 08:52:00,67.0,47.0,-100.00,North,350,4.0,18.0,48,0.00,,,-99.99,,2013-07-10 13:52:00,
2013-07-10 09:01:00,67.0,47.0,-100.00,North,350,4.0,18.0,48,0.00,,,-99.99,,2013-07-10 14:01:00,
2013-07-10 21:44:00,62.0,50.0,-100.00,NE,50,0.0,1.0,67,0.00,,,-99.99,,2013-07-11 02:44:00,
2013-07-10 21:53:00,62.0,50.0,-100.00,NE,50,0.0,1.0,67,0.00,,,-99.99,,2013-07-11 02:53:00,
2013-07-10 22:02:00,62.0,50.0,-100.00,NE,50,0.0,1.0,67,0.00,,,-99.99,,2013-07-11 03:02:00,
2013-07-10 22:11:00,62.0,50.0,-100.00,NE,50,0.0,1.0,67,0.00,,,-99.99,,2013-07-11 03:11:00,
2013-07-10 22:33:00,58.0,51.0,-100.00,SE,130,0.0,1.0,75,0.00,,,-99.99,,2013-07-11 03:33:00,
2013-07-10 22:42:00,58.0,51.0,-100.00,SE,130,0.0,1.0,75,0.00,,,-99.99,,2013-07-11 03:42:00,
2013-07-10 22:53:00,58.0,51.0,-100.00,SE,130,0.0,1.0,75,0.00,,,-99.99,,2013-07-11 03:53:00,
2013-07-10 23:01:00,58.0,51.0,-100.00,SE,130,0.0,1.0,75,0.00,,,-99.99,,2013-07-11 04:01:00,
2013-07-10 23:12:00,58.0,51.0,-100.00,SE,130,0.0,1.0,75,0.00,,,-99.99,,2013-07-11 04:12:00,
2013-07-10 23:32:00,57.0,50.0,-100.00,SE,130,0.0,1.0,79,0.00,,,-99.99,,2013-07-11 04:32:00,
2013-07-10 23:43:00,57.0,50.0,-100.00,SE,130,0.0,1.0,79,0.00,,,-99.99,,2013-07-11 04:43:00,
2013-07-10 23:53:00,57.0,50.0,-100.00,SE,130,0.0,1.0,79,0.00,,,-99.99,,2013-07-11 04:53:00,